Time;durP1;ratioP1;P1;durP2;ratioP2;P2;SDS_P1;SDS_P2;PMS_P1;PMS_P2;Temp;Humidity;BMP_temperature;BMP_pressure;BME280_temperature;BME280_humidity;BME280_pressure;Samples;Min_cycle;Max_cycle;Signal;HPM_P1;HPM_P2
2022/06/15 00:01:42;;;;;;;;;6.00;5.67;;;;;37.37;18.97;101100.41;5096680;27;45450;-71
2022/06/15 00:04:07;;;;;;;;;5.67;5.67;;;;;37.38;18.96;101106.81;5096877;27;45371;-71
2022/06/15 00:06:38;;;;;;;;;7.00;7.00;;;;;37.32;18.92;101104.63;5096243;27;45597;-71
2022/06/15 00:09:04;;;;;;;;;9.00;7.00;;;;;37.32;18.98;101102.72;5096520;27;45483;-70
2022/06/15 00:11:36;;;;;;;;;6.00;6.00;;;;;37.36;18.95;101095.03;5096563;27;45743;-70
2022/06/15 00:14:05;;;;;;;;;6.33;6.00;;;;;37.25;18.99;101090.41;5096551;27;45481;-71
2022/06/15 00:16:31;;;;;;;;;6.67;6.67;;;;;37.29;19.08;101099.38;5096924;27;45460;-71
2022/06/15 00:18:56;;;;;;;;;8.00;8.00;;;;;37.17;18.64;101077.25;5095018;27;45592;-71
2022/06/15 00:21:22;;;;;;;;;10.67;8.67;;;;;37.11;18.84;101086.09;5096224;27;46198;-71
2022/06/15 00:23:48;;;;;;;;;7.00;7.00;;;;;37.03;19.04;101096.97;5096426;27;45357;-71
2022/06/15 00:26:14;;;;;;;;;6.67;6.00;;;;;36.98;18.79;101096.50;5096560;27;45488;-71
2022/06/15 00:28:39;;;;;;;;;8.00;8.00;;;;;36.81;18.93;101093.34;5096587;27;45501;-71
2022/06/15 00:31:05;;;;;;;;;7.00;6.33;;;;;36.76;18.71;101087.28;5096007;27;45326;-71
2022/06/15 00:33:31;;;;;;;;;7.00;7.00;;;;;36.70;19.15;101097.00;5096382;27;45473;-71
2022/06/15 00:35:59;;;;;;;;;7.33;7.33;;;;;36.65;19.11;101087.34;5095948;27;45389;-71
2022/06/15 00:38:34;;;;;;;;;9.33;9.33;;;;;36.62;19.10;101094.00;5095014;27;45489;-71
2022/06/15 00:41:00;;;;;;;;;8.33;7.00;;;;;36.63;19.22;101100.44;5096020;27;46175;-71
2022/06/15 00:43:35;;;;;;;;;9.00;9.00;;;;;36.66;19.42;101101.03;5096428;27;45400;-71
2022/06/15 00:46:24;;;;;;;;;9.33;8.00;;;;;36.77;19.09;101099.25;5094818;27;45318;-71
2022/06/15 00:48:56;;;;;;;;;7.33;7.33;;;;;36.80;19.17;101101.75;5089484;27;45693;-71
2022/06/15 00:51:24;;;;;;;;;8.00;8.00;;;;;36.66;19.00;101095.50;5095744;27;45509;-71
2022/06/15 00:53:50;;;;;;;;;8.00;8.00;;;;;36.71;19.13;101095.09;5096070;27;45445;-71
2022/06/15 00:56:16;;;;;;;;;9.00;9.00;;;;;36.56;19.81;101098.19;5095992;27;45380;-71
2022/06/15 00:58:48;;;;;;;;;9.00;9.00;;;;;36.37;19.68;101098.00;5096173;27;45313;-71
2022/06/15 01:01:13;;;;;;;;;6.33;6.33;;;;;36.34;18.96;101085.31;5095965;27;45433;-71
2022/06/15 01:03:39;;;;;;;;;7.33;5.33;;;;;36.23;19.33;101088.09;5096011;27;45530;-71
2022/06/15 01:06:30;;;;;;;;;7.00;7.00;;;;;36.39;19.54;101107.91;5111670;27;45451;-71
2022/06/15 01:09:18;;;;;;;;;7.00;6.00;;;;;36.40;19.51;101106.06;5095784;27;45409;-71
2022/06/15 01:11:46;;;;;;;;;6.00;6.00;;;;;36.40;19.53;101104.16;5095639;27;46109;-71
2022/06/15 01:14:57;;;;;;;;;8.33;7.00;;;;;36.42;19.40;101098.50;5095923;27;45401;-71
2022/06/15 01:17:37;;;;;;;;;8.67;8.00;;;;;36.40;19.22;101101.38;5079320;27;45582;-71
2022/06/15 01:20:34;;;;;;;;;6.67;6.67;;;;;36.34;19.70;101087.22;5095099;27;45285;-71
2022/06/15 01:23:26;;;;;;;;;7.00;7.00;;;;;36.43;19.40;101107.66;5095543;27;45974;-71
2022/06/15 01:26:00;;;;;;;;;7.00;7.00;;;;;36.48;19.33;101109.00;5095741;27;45402;-71
2022/06/15 01:28:40;;;;;;;;;6.00;6.00;;;;;36.42;19.21;101108.69;5095933;27;45473;-71
2022/06/15 01:31:43;;;;;;;;;7.00;6.67;;;;;36.40;19.66;101097.75;5095615;27;45565;-71
2022/06/15 01:34:41;;;;;;;;;7.00;6.33;;;;;36.47;19.79;101101.75;5094968;27;45338;-71
2022/06/15 01:37:17;;;;;;;;;6.33;6.33;;;;;36.40;19.46;101089.47;5095100;27;45350;-71
2022/06/15 01:40:00;;;;;;;;;6.00;6.00;;;;;36.37;19.85;101093.38;5095769;27;45392;-71
2022/06/15 01:42:33;;;;;;;;;6.00;6.00;;;;;36.15;19.57;101066.66;5095656;27;45227;-71
2022/06/15 01:45:03;;;;;;;;;7.00;5.00;;;;;36.35;19.54;101105.56;5095218;27;45652;-71
2022/06/15 01:47:32;;;;;;;;;6.67;6.67;;;;;36.21;19.61;101082.69;5095540;27;45415;-71
2022/06/15 01:50:08;;;;;;;;;6.67;5.67;;;;;36.31;19.78;101101.28;5095185;27;45326;-71
2022/06/15 01:52:41;;;;;;;;;6.33;6.33;;;;;36.29;19.69;101093.09;5095498;27;45464;-71
2022/06/15 01:55:13;;;;;;;;;7.00;6.00;;;;;36.18;19.83;101052.56;5093734;27;46463;-71
2022/06/15 01:57:40;;;;;;;;;8.00;7.00;;;;;36.35;19.55;101077.94;5095119;27;45322;-71
2022/06/15 02:00:14;;;;;;;;;6.33;5.33;;;;;36.27;19.74;101064.72;5095224;27;45575;-71
2022/06/15 02:02:49;;;;;;;;;6.00;6.00;;;;;36.33;19.49;101078.06;5093677;27;45359;-71
2022/06/15 02:05:18;;;;;;;;;5.67;5.67;;;;;36.31;19.63;101079.19;5095113;27;46460;-71
2022/06/15 02:07:57;;;;;;;;;6.67;6.67;;;;;36.18;19.89;101079.34;5097423;27;45381;-71
2022/06/15 02:10:39;;;;;;;;;7.67;7.00;;;;;36.10;20.07;101068.06;5098606;27;45393;-71
2022/06/15 02:13:10;;;;;;;;;5.33;5.33;;;;;36.11;20.07;101069.81;5098549;27;45281;-71
2022/06/15 02:15:40;;;;;;;;;5.67;5.67;;;;;36.05;20.05;101069.31;5098460;27;46289;-71
2022/06/15 02:18:10;;;;;;;;;6.67;6.67;;;;;36.01;20.29;101062.28;5098183;27;45283;-71
2022/06/15 02:20:43;;;;;;;;;5.33;5.33;;;;;35.86;19.94;101049.78;5098497;27;45508;-71
2022/06/15 02:23:11;;;;;;;;;5.33;5.00;;;;;35.91;20.05;101061.31;5097253;27;45508;-71
2022/06/15 02:25:42;;;;;;;;;5.00;5.00;;;;;35.89;20.08;101066.97;5098427;27;45505;-71
2022/06/15 02:28:10;;;;;;;;;5.00;5.00;;;;;35.79;20.60;101062.31;5096943;27;45342;-71
2022/06/15 02:30:35;;;;;;;;;6.67;4.00;;;;;35.78;20.47;101063.31;5098508;27;45424;-71
2022/06/15 02:33:19;;;;;;;;;6.00;5.00;;;;;35.88;20.36;101067.09;5097966;27;45434;-71
2022/06/15 02:35:45;;;;;;;;;6.33;6.33;;;;;35.78;20.15;101058.69;5098432;27;46296;-71
2022/06/15 02:38:10;;;;;;;;;5.33;5.33;;;;;35.80;20.54;101055.78;5097947;27;48182;-71
2022/06/15 02:40:35;;;;;;;;;5.67;5.67;;;;;35.76;20.61;101057.03;5098571;27;45331;-71
2022/06/15 02:43:01;;;;;;;;;5.00;5.00;;;;;35.80;20.48;101062.19;5096770;27;45430;-71
2022/06/15 02:45:34;;;;;;;;;6.00;6.00;;;;;35.69;20.18;101038.22;5098107;27;45333;-71
2022/06/15 02:48:01;;;;;;;;;6.00;6.00;;;;;35.69;20.69;101052.00;5097733;27;45424;-71
2022/06/15 02:50:31;;;;;;;;;5.67;5.67;;;;;35.75;20.65;101067.19;5098291;27;45416;-71
2022/06/15 02:53:09;;;;;;;;;4.00;4.00;;;;;35.68;20.51;101058.56;5097912;27;45591;-71
2022/06/15 02:55:35;;;;;;;;;5.00;5.00;;;;;35.70;21.08;101058.44;5097855;27;46418;-71
2022/06/15 02:58:20;;;;;;;;;5.00;5.00;;;;;35.67;20.94;101042.13;5097839;27;45480;-71
2022/06/15 03:00:46;;;;;;;;;6.00;6.00;;;;;35.70;20.71;101047.41;5097900;27;45487;-71
2022/06/15 03:03:13;;;;;;;;;4.00;4.00;;;;;35.83;20.82;101069.38;5097658;27;45581;-71
2022/06/15 03:05:38;;;;;;;;;7.67;6.00;;;;;35.82;20.88;101053.78;5097543;27;45731;-71
2022/06/15 03:08:04;;;;;;;;;6.67;6.00;;;;;35.74;20.80;101043.38;5097696;27;45495;-71
2022/06/15 03:10:29;;;;;;;;;6.33;5.00;;;;;35.87;20.68;101057.94;5098096;27;45549;-72
2022/06/15 03:12:54;;;;;;;;;8.00;6.33;;;;;35.73;21.00;101048.00;5097503;27;45555;-71
2022/06/15 03:15:20;;;;;;;;;5.33;5.33;;;;;35.73;20.74;101053.53;5097304;27;46903;-71
2022/06/15 03:17:45;;;;;;;;;6.00;5.00;;;;;35.78;20.99;101063.31;5097282;27;45488;-71
2022/06/15 03:20:11;;;;;;;;;5.00;5.00;;;;;35.70;20.88;101058.44;5096807;27;45583;-71
2022/06/15 03:22:36;;;;;;;;;5.33;5.33;;;;;35.75;21.05;101061.66;5097823;27;45473;-71
2022/06/15 03:25:03;;;;;;;;;5.67;5.67;;;;;35.80;21.48;101069.59;5097372;27;45949;-71
2022/06/15 03:27:29;;;;;;;;;6.00;6.00;;;;;35.85;20.98;101064.56;5097507;27;45333;-71
2022/06/15 03:29:54;;;;;;;;;5.33;5.00;;;;;35.85;21.06;101084.81;5097277;27;45548;-72
2022/06/15 03:32:20;;;;;;;;;6.00;6.00;;;;;35.83;20.94;101074.88;5097178;27;45476;-71
2022/06/15 03:34:45;;;;;;;;;7.00;6.00;;;;;35.75;21.34;101058.91;5097363;27;45507;-71
2022/06/15 03:37:11;;;;;;;;;5.67;5.67;;;;;35.76;20.75;101063.44;5095510;27;51836;-71
2022/06/15 03:39:38;;;;;;;;;8.00;6.00;;;;;35.88;21.20;101087.28;5097495;27;45333;-71
2022/06/15 03:42:18;;;;;;;;;5.00;5.00;;;;;35.80;21.33;101081.50;5097320;27;45406;-71
2022/06/15 03:44:44;;;;;;;;;5.00;5.00;;;;;35.70;21.24;101066.72;5096788;27;46386;-71
2022/06/15 03:47:19;;;;;;;;;8.00;6.33;;;;;35.67;21.33;101069.72;5096941;27;45580;-71
2022/06/15 03:49:45;;;;;;;;;5.00;5.00;;;;;35.64;21.59;101081.00;5097305;27;45457;-71
2022/06/15 03:52:11;;;;;;;;;6.67;6.67;;;;;35.64;21.34;101079.13;5096892;27;45752;-71
2022/06/15 03:54:37;;;;;;;;;7.00;4.67;;;;;35.59;21.51;101070.34;5097065;27;45407;-71
2022/06/15 03:57:03;;;;;;;;;8.33;8.33;;;;;35.61;21.77;101078.50;5096703;27;45448;-71
2022/06/15 03:59:28;;;;;;;;;7.00;6.33;;;;;35.51;21.40;101059.06;5096816;27;45373;-71
2022/06/15 04:01:54;;;;;;;;;6.33;6.33;;;;;35.53;21.69;101074.50;5097178;27;45503;-71
2022/06/15 04:04:19;;;;;;;;;7.33;6.33;;;;;35.42;21.67;101060.69;5095365;27;47260;-72
2022/06/15 04:06:44;;;;;;;;;5.33;5.33;;;;;35.53;21.65;101063.47;5097134;27;45319;-72
2022/06/15 04:09:10;;;;;;;;;7.67;7.00;;;;;35.51;21.85;101057.19;5096664;27;45611;-71
2022/06/15 04:14:21;;;;;;;;;6.33;6.00;;;;;35.65;21.63;101072.59;5096083;27;45789;-71
2022/06/15 04:16:53;;;;;;;;;6.33;5.00;;;;;35.65;21.82;101072.59;5096874;27;45393;-71
2022/06/15 04:19:19;;;;;;;;;8.00;6.00;;;;;35.57;21.71;101057.69;5096206;27;45306;-71
2022/06/15 04:21:44;;;;;;;;;6.00;6.00;;;;;35.34;21.58;101025.44;5096765;27;45242;-71
2022/06/15 04:24:11;;;;;;;;;7.33;6.33;;;;;35.47;21.82;101047.41;5096336;27;46159;-71
2022/06/15 04:26:38;;;;;;;;;7.00;6.00;;;;;35.67;21.94;101076.13;5096599;27;45290;-71
2022/06/15 04:29:03;;;;;;;;;6.33;6.33;;;;;35.64;22.05;101069.97;5096099;27;45385;-71
2022/06/15 04:31:28;;;;;;;;;5.00;5.00;;;;;35.55;21.73;101057.81;5096168;27;45207;-71
2022/06/15 04:33:54;;;;;;;;;5.33;5.33;;;;;35.70;21.94;101073.09;5095128;27;47101;-72
2022/06/15 04:36:21;;;;;;;;;7.00;7.00;;;;;35.66;21.88;101074.34;5094787;27;45479;-72
2022/06/15 04:38:46;;;;;;;;;7.00;7.00;;;;;35.55;21.71;101055.03;5096454;27;45412;-72
2022/06/15 04:41:12;;;;;;;;;7.00;6.33;;;;;35.64;21.79;101069.97;5096184;27;45450;-72
2022/06/15 04:43:37;;;;;;;;;8.33;7.33;;;;;35.69;21.92;101078.75;5095888;27;46290;-72
2022/06/15 04:46:03;;;;;;;;;7.00;6.00;;;;;35.48;21.67;101043.63;5096223;27;45476;-71
2022/06/15 04:48:29;;;;;;;;;7.67;6.67;;;;;35.72;21.73;101075.72;5096302;27;45481;-71
2022/06/15 04:50:55;;;;;;;;;5.00;5.00;;;;;35.69;22.07;101082.38;5096084;27;45632;-71
2022/06/15 04:53:21;;;;;;;;;7.67;7.00;;;;;35.74;21.59;101082.03;5096152;27;45491;-70
2022/06/15 04:55:46;;;;;;;;;8.00;8.00;;;;;35.84;21.81;101085.78;5096158;27;45558;-67
2022/06/15 04:58:12;;;;;;;;;8.67;8.67;;;;;35.81;22.04;101066.72;5095575;27;45357;-66
2022/06/15 05:00:40;;;;;;;;;8.67;7.67;;;;;35.95;21.93;101084.00;5096232;27;45376;-66
2022/06/15 05:03:06;;;;;;;;;8.67;7.33;;;;;35.93;21.92;101086.03;5095657;27;46474;-66
2022/06/15 05:05:32;;;;;;;;;7.00;7.00;;;;;35.92;21.81;101093.44;5095936;27;45574;-66
2022/06/15 05:07:57;;;;;;;;;12.00;9.33;;;;;35.88;21.92;101087.28;5096132;27;45515;-66
2022/06/15 05:10:24;;;;;;;;;8.00;8.00;;;;;36.00;21.75;101092.81;5095503;27;45629;-66
2022/06/15 05:12:51;;;;;;;;;7.33;7.00;;;;;35.99;22.11;101094.69;5095521;27;45456;-66
2022/06/15 05:15:17;;;;;;;;;7.00;5.67;;;;;36.00;21.90;101088.16;5094155;27;45512;-66
2022/06/15 05:17:44;;;;;;;;;10.00;9.00;;;;;36.02;21.74;101082.50;5095865;27;45286;-66
2022/06/15 05:20:11;;;;;;;;;8.00;7.67;;;;;36.17;21.36;101086.72;5095446;27;45534;-71
2022/06/15 05:22:37;;;;;;;;;8.67;7.33;;;;;36.21;21.61;101088.22;5095530;27;45464;-65
2022/06/15 05:25:05;;;;;;;;;8.00;7.00;;;;;36.17;21.68;101083.97;5095400;27;45382;-65
2022/06/15 05:27:31;;;;;;;;;6.00;6.00;;;;;36.22;21.63;101087.22;5095658;27;45333;-65
2022/06/15 05:29:56;;;;;;;;;6.00;6.00;;;;;36.25;21.33;101080.56;5095734;27;45533;-65
2022/06/15 05:32:22;;;;;;;;;5.33;5.33;;;;;36.20;21.56;101091.09;5094948;27;45792;-66
2022/06/15 05:34:47;;;;;;;;;5.33;5.33;;;;;36.27;21.58;101097.00;5095517;27;45289;-65
2022/06/15 05:37:12;;;;;;;;;6.00;6.00;;;;;36.29;21.54;101092.22;5095382;27;45445;-65
2022/06/15 05:39:38;;;;;;;;;8.67;7.67;;;;;36.25;21.45;101080.56;5095160;27;45429;-66
2022/06/15 05:42:04;;;;;;;;;6.33;6.33;;;;;36.26;21.50;101070.38;5096520;27;46338;-66
2022/06/15 05:47:14;;;;;;;;;7.00;6.33;;;;;36.37;21.19;101086.94;5098973;27;45414;-66
2022/06/15 05:49:39;;;;;;;;;6.00;6.00;;;;;36.35;21.27;101080.69;5098793;27;45339;-69
2022/06/15 05:52:05;;;;;;;;;8.00;8.00;;;;;36.42;21.29;101089.34;5099494;27;47301;-66
2022/06/15 05:54:30;;;;;;;;;7.00;7.00;;;;;36.57;21.17;101090.78;5098308;27;45381;-66
2022/06/15 05:56:55;;;;;;;;;7.67;7.00;;;;;36.44;20.85;101059.66;5099039;27;45392;-65
2022/06/15 05:59:21;;;;;;;;;7.00;7.00;;;;;36.74;21.18;101086.56;5097790;27;45370;-66
2022/06/15 06:01:46;;;;;;;;;5.33;5.33;;;;;36.84;20.95;101089.44;5098090;27;46196;-67
2022/06/15 06:04:18;;;;;;;;;7.33;7.00;;;;;36.84;21.37;101076.47;5097528;27;45412;-66
2022/06/15 06:06:43;;;;;;;;;10.00;7.00;;;;;36.89;20.94;101078.81;5097059;27;45239;-66
2022/06/15 06:09:12;;;;;;;;;7.00;7.00;;;;;36.86;20.96;101074.44;5097011;27;46071;-66
2022/06/15 06:11:38;;;;;;;;;7.67;7.67;;;;;36.98;20.93;101096.50;5097624;27;45418;-66
2022/06/15 06:14:04;;;;;;;;;7.00;7.00;;;;;37.01;21.03;101099.88;5097783;27;45483;-67
2022/06/15 06:16:29;;;;;;;;;5.67;5.33;;;;;37.00;20.40;101097.25;5097774;27;45473;-66
2022/06/15 06:18:55;;;;;;;;;4.67;4.67;;;;;36.91;20.10;101085.97;5097903;27;45523;-67
2022/06/15 06:21:20;;;;;;;;;6.67;6.67;;;;;37.03;20.75;101100.63;5097774;27;45931;-66
2022/06/15 06:23:46;;;;;;;;;7.33;6.67;;;;;36.99;20.95;101090.84;5097011;27;45604;-66
2022/06/15 06:26:27;;;;;;;;;9.00;8.00;;;;;36.95;21.11;101089.34;5097836;27;45499;-66
2022/06/15 06:28:53;;;;;;;;;7.00;7.00;;;;;36.99;20.52;101090.84;5097602;27;45514;-66
2022/06/15 06:31:20;;;;;;;;;7.00;6.67;;;;;37.00;21.08;101092.56;5118569;27;46420;-67
2022/06/15 06:33:46;;;;;;;;;7.00;7.00;;;;;37.11;21.07;101088.00;5116232;27;45726;-68
2022/06/15 06:36:21;;;;;;;;;10.33;9.33;;;;;37.14;21.23;101094.13;5096852;27;45315;-67
2022/06/15 06:38:46;;;;;;;;;10.33;9.67;;;;;37.13;20.80;101086.84;5097490;27;45207;-67
2022/06/15 06:41:16;;;;;;;;;7.00;7.00;;;;;37.32;21.03;101093.53;5097232;27;46029;-67
2022/06/15 06:43:41;;;;;;;;;6.67;6.00;;;;;37.35;21.04;101087.72;5097454;27;45405;-67
2022/06/15 06:46:07;;;;;;;;;9.00;7.00;;;;;37.32;20.86;101079.72;5097891;27;45563;-68
2022/06/15 06:48:32;;;;;;;;;7.00;7.00;;;;;37.49;20.40;101092.88;5097348;27;45491;-67
2022/06/15 06:50:57;;;;;;;;;8.33;7.67;;;;;37.50;20.98;101099.31;5097253;27;46042;-67
2022/06/15 06:53:23;;;;;;;;;8.00;7.00;;;;;37.60;20.40;101089.16;5096749;27;45593;-67
2022/06/15 06:55:48;;;;;;;;;7.67;6.00;;;;;37.51;20.42;101095.50;5097433;27;45567;-67
2022/06/15 06:58:13;;;;;;;;;5.67;5.33;;;;;37.59;20.44;101093.81;5095862;27;45587;-67
2022/06/15 07:00:39;;;;;;;;;8.33;8.00;;;;;37.37;19.98;101060.78;5097139;27;46398;-67
2022/06/15 07:03:05;;;;;;;;;9.00;8.00;;;;;37.55;20.68;101097.88;5097093;27;45494;-67
2022/06/15 07:05:33;;;;;;;;;8.33;8.00;;;;;37.55;20.52;101099.75;5097041;27;45314;-67
2022/06/15 07:07:59;;;;;;;;;6.00;6.00;;;;;37.56;20.49;101101.53;5097042;27;45560;-67
2022/06/15 07:10:26;;;;;;;;;8.00;7.00;;;;;37.48;19.48;101088.34;5096461;27;45447;-67
2022/06/15 07:12:51;;;;;;;;;7.00;6.00;;;;;37.59;19.64;101088.25;5096911;27;45357;-67
2022/06/15 07:15:17;;;;;;;;;8.67;8.00;;;;;37.65;19.54;101089.63;5096929;27;45392;-67
2022/06/15 07:17:42;;;;;;;;;7.00;6.00;;;;;37.65;20.17;101097.94;5097361;27;45609;-67
2022/06/15 07:20:09;;;;;;;;;9.00;9.00;;;;;37.82;20.06;101096.44;5106857;27;45680;-68
2022/06/15 07:22:35;;;;;;;;;6.00;6.00;;;;;37.85;19.88;101093.38;5094281;27;45464;-67
2022/06/15 07:25:01;;;;;;;;;9.00;7.00;;;;;38.00;19.17;101095.72;5096878;27;45492;-67
2022/06/15 07:27:26;;;;;;;;;9.00;6.00;;;;;37.95;19.71;101085.09;5097277;27;45550;-66
2022/06/15 07:29:53;;;;;;;;;8.00;6.00;;;;;38.08;19.37;101087.59;5098938;27;46321;-66
2022/06/15 07:32:18;;;;;;;;;7.33;7.33;;;;;38.08;18.98;101093.13;5109846;27;45444;-67
2022/06/15 07:34:44;;;;;;;;;6.67;6.00;;;;;37.93;19.34;101085.22;5117943;27;45426;-67
2022/06/15 07:37:10;;;;;;;;;7.00;7.00;;;;;37.97;19.55;101080.25;5098246;27;45469;-67
2022/06/15 07:39:37;;;;;;;;;7.00;6.00;;;;;38.06;19.07;101107.13;5100011;27;45463;-66
2022/06/15 07:42:06;;;;;;;;;7.33;7.00;;;;;38.13;19.12;101109.31;5096648;27;45442;-67
2022/06/15 07:44:34;;;;;;;;;6.00;6.00;;;;;38.18;19.21;101107.00;5109091;27;45373;-67
2022/06/15 07:49:55;;;;;;;;;6.67;5.33;;;;;38.47;18.73;101093.22;5098378;27;45433;-67
2022/06/15 07:52:49;;;;;;;;;3.00;3.00;;;;;38.58;18.92;101106.94;5075980;27;45466;-67
2022/06/15 07:55:17;;;;;;;;;6.67;5.33;;;;;38.61;18.48;101105.78;5079885;27;45345;-67
2022/06/15 07:57:43;;;;;;;;;7.00;6.00;;;;;38.63;18.36;101100.94;5096525;27;45418;-67
2022/06/15 08:00:10;;;;;;;;;5.00;5.00;;;;;38.76;18.91;101115.44;5096873;27;45510;-67
2022/06/15 08:02:36;;;;;;;;;7.00;4.67;;;;;38.78;18.71;101116.16;5096316;27;45436;-67
2022/06/15 08:05:01;;;;;;;;;5.33;5.00;;;;;38.70;18.67;101092.94;5120948;27;45460;-67
2022/06/15 08:07:27;;;;;;;;;6.00;6.00;;;;;38.66;18.32;101099.78;5101689;27;45380;-66
2022/06/15 08:09:52;;;;;;;;;5.33;5.33;;;;;38.56;18.25;101080.38;5101065;27;46254;-67
2022/06/15 08:12:23;;;;;;;;;6.00;6.00;;;;;38.67;18.25;101099.63;5099121;27;45388;-66
2022/06/15 08:14:58;;;;;;;;;6.33;6.33;;;;;38.70;18.10;101104.03;5096423;27;45458;-67
2022/06/15 08:17:29;;;;;;;;;4.33;4.33;;;;;38.70;17.99;101093.81;5104029;27;45508;-66
2022/06/15 08:20:02;;;;;;;;;5.00;5.00;;;;;38.75;17.96;101101.72;5100694;27;46604;-66
2022/06/15 08:22:28;;;;;;;;;6.67;5.00;;;;;38.82;17.92;101088.13;5095656;27;45444;-66
2022/06/15 08:24:54;;;;;;;;;7.00;6.00;;;;;38.85;17.82;101088.72;5095467;27;45334;-65
2022/06/15 08:27:22;;;;;;;;;7.67;6.00;;;;;38.86;17.72;101093.25;5098096;27;45481;-65
2022/06/15 08:29:49;;;;;;;;;5.67;5.67;;;;;38.86;18.36;101095.13;5095245;27;46192;-65
2022/06/15 08:32:16;;;;;;;;;7.00;7.00;;;;;38.98;17.49;101105.03;5095114;27;45514;-65
2022/06/15 08:34:42;;;;;;;;;7.00;5.00;;;;;39.02;18.12;101086.22;5093336;27;45563;-66
2022/06/15 08:37:12;;;;;;;;;6.00;5.00;;;;;39.18;17.87;101097.56;5095691;27;45458;-66
2022/06/15 08:39:38;;;;;;;;;5.33;5.00;;;;;39.15;18.22;101097.88;5095050;27;45487;-66
2022/06/15 08:42:21;;;;;;;;;6.00;6.00;;;;;39.02;17.57;101102.84;5095596;27;45344;-66
2022/06/15 08:44:56;;;;;;;;;5.33;5.33;;;;;39.12;18.06;101098.16;5095454;27;45743;-67
2022/06/15 08:47:33;;;;;;;;;5.33;5.33;;;;;39.28;17.59;101100.31;5093909;27;45401;-66
2022/06/15 08:49:59;;;;;;;;;6.67;6.67;;;;;39.36;17.77;101102.34;5091165;27;46300;-66
2022/06/15 08:52:32;;;;;;;;;6.00;6.00;;;;;39.44;17.39;101086.69;5094945;27;45358;-69
2022/06/15 08:55:13;;;;;;;;;7.67;6.00;;;;;39.46;17.46;101089.31;5095549;27;45504;-66
2022/06/15 08:57:51;;;;;;;;;4.00;4.00;;;;;39.44;17.61;101067.25;5095886;27;45524;-69
2022/06/15 09:00:26;;;;;;;;;5.00;5.00;;;;;39.63;17.21;101102.41;5094790;27;46581;-69
2022/06/15 09:03:09;;;;;;;;;8.33;7.00;;;;;39.59;17.29;101087.09;5094476;27;45451;-67
2022/06/15 09:05:46;;;;;;;;;6.67;6.00;;;;;39.60;17.95;101087.97;5096310;27;45535;-68
2022/06/15 09:08:24;;;;;;;;;5.00;5.00;;;;;39.77;18.08;101091.84;5094277;27;45734;-70
2022/06/15 09:10:50;;;;;;;;;6.00;6.00;;;;;39.77;17.51;101098.25;5094572;27;46412;-74
2022/06/15 09:13:25;;;;;;;;;9.00;6.00;;;;;39.89;18.19;101089.72;5081101;27;45538;-75
2022/06/15 09:16:14;;;;;;;;;7.00;7.00;;;;;39.92;17.73;101093.06;5089928;27;45605;-72
2022/06/15 09:19:01;;;;;;;;;6.67;5.67;;;;;39.99;17.97;101109.09;5091318;27;45559;-75
2022/06/15 09:21:34;;;;;;;;;6.33;6.00;;;;;40.05;17.76;101098.28;5093000;27;46182;-74
2022/06/15 09:24:08;;;;;;;;;6.00;6.00;;;;;40.07;17.65;101100.91;5093643;27;45477;-76
2022/06/15 09:26:51;;;;;;;;;5.67;5.67;;;;;39.90;17.34;101086.81;5097411;27;45447;-78
2022/06/15 09:29:25;;;;;;;;;6.00;6.00;;;;;40.02;17.23;101101.34;5119586;27;45631;-78
2022/06/15 09:31:57;;;;;;;;;9.00;9.00;;;;;40.12;17.46;101099.41;5106682;27;47023;-77
2022/06/15 09:34:33;;;;;;;;;5.33;5.33;;;;;40.27;17.60;101104.44;5093683;27;45506;-77
2022/06/15 09:36:59;;;;;;;;;7.00;7.00;;;;;40.36;17.77;101108.19;5098584;27;45494;-71
2022/06/15 09:39:29;;;;;;;;;6.33;6.00;;;;;40.38;17.76;101100.53;5108010;27;46347;-70
2022/06/15 09:42:04;;;;;;;;;6.33;6.33;;;;;40.41;17.08;101105.78;5091450;27;45488;-73
2022/06/15 09:44:53;;;;;;;;;7.00;6.67;;;;;40.24;17.52;101091.72;5088344;27;46147;-72
2022/06/15 09:47:31;;;;;;;;;8.00;8.00;;;;;40.41;17.31;101095.56;5090622;27;45441;-76
2022/06/15 09:50:06;;;;;;;;;8.00;7.33;;;;;40.39;17.56;101099.50;5098992;27;45597;-74
2022/06/15 09:52:40;;;;;;;;;9.00;7.00;;;;;40.40;17.07;101095.72;5092425;27;46214;-75
2022/06/15 09:55:27;;;;;;;;;8.00;8.00;;;;;40.20;17.70;101079.19;5090911;27;45442;-75
2022/06/15 09:57:54;;;;;;;;;7.67;7.67;;;;;40.44;17.72;101081.31;5091837;27;45429;-73
2022/06/15 10:00:19;;;;;;;;;7.00;7.00;;;;;40.57;17.58;101082.88;5094551;27;45476;-74
2022/06/15 10:02:55;;;;;;;;;7.33;7.00;;;;;40.61;17.33;101079.59;5094995;27;46116;-73
2022/06/15 10:05:26;;;;;;;;;7.67;7.67;;;;;40.53;17.59;101087.84;5090150;27;46094;-73
2022/06/15 10:07:56;;;;;;;;;9.00;9.00;;;;;40.62;17.55;101086.91;5093622;27;45487;-74
2022/06/15 10:10:27;;;;;;;;;7.33;7.33;;;;;40.73;17.65;101088.56;5091899;27;45544;-74
2022/06/15 10:12:59;;;;;;;;;8.67;8.00;;;;;40.83;17.24;101091.25;5095082;27;46627;-74
2022/06/15 10:15:25;;;;;;;;;9.00;9.00;;;;;40.63;17.49;101062.75;5090914;27;45581;-74
2022/06/15 10:17:54;;;;;;;;;9.00;9.00;;;;;40.74;17.25;101087.53;5110649;27;45404;-82
2022/06/15 10:20:26;;;;;;;;;8.33;8.33;;;;;40.88;17.46;101091.63;5095293;27;45670;-80
2022/06/15 10:22:56;;;;;;;;;9.00;9.00;;;;;40.90;17.34;101097.94;5091857;27;46993;-78
2022/06/15 10:25:23;;;;;;;;;9.67;8.00;;;;;40.95;17.34;101098.34;5090815;27;45569;-81
2022/06/15 10:27:51;;;;;;;;;9.00;9.00;;;;;41.02;17.98;101100.50;5091993;27;45514;-80
2022/06/15 10:30:23;;;;;;;;;8.33;7.33;;;;;40.90;17.44;101094.25;5097392;27;45500;-75
2022/06/15 10:33:12;;;;;;;;;12.33;9.00;;;;;40.80;17.49;101083.22;5093211;27;45686;-78
2022/06/15 10:35:38;;;;;;;;;8.67;8.00;;;;;40.86;17.19;101090.06;5092016;27;45617;-74
2022/06/15 10:38:11;;;;;;;;;7.00;7.00;;;;;40.84;16.81;101083.78;5089442;27;45635;-75
2022/06/15 10:40:49;;;;;;;;;9.33;8.00;;;;;40.98;16.78;101095.22;5089846;27;45442;-75
2022/06/15 10:43:32;;;;;;;;;7.33;7.00;;;;;41.12;16.95;101099.31;5090264;27;46256;-75
2022/06/15 10:46:06;;;;;;;;;8.00;8.00;;;;;41.05;16.76;101063.97;5102456;27;45501;-74
2022/06/15 10:48:54;;;;;;;;;8.33;8.33;;;;;41.28;16.98;101098.59;5089323;27;45496;-75
2022/06/15 10:51:36;;;;;;;;;6.67;6.00;;;;;41.26;16.97;101094.22;5098383;27;45575;-74
2022/06/15 10:54:17;;;;;;;;;8.00;8.00;;;;;41.39;16.65;101097.44;5090396;27;45506;-75
2022/06/15 11:02:06;;;;;;;;;7.00;4.67;;;;;41.56;16.76;101083.59;5089384;27;46174;-74
2022/06/15 11:02:32;;;;;;;;;7.00;7.00;;;;;41.72;16.96;101099.50;5089389;27;45523;-74
2022/06/15 11:04:57;;;;;;;;;8.00;6.00;;;;;41.79;16.36;101095.94;5087410;27;45590;-77
2022/06/15 11:07:22;;;;;;;;;7.00;7.00;;;;;41.81;16.30;101091.06;5080617;27;45569;-74
2022/06/15 11:09:54;;;;;;;;;8.33;7.67;;;;;41.89;16.36;101095.81;5088867;27;45519;-75
2022/06/15 11:12:36;;;;;;;;;7.00;7.00;;;;;41.90;16.19;101094.78;5090179;27;46603;-72
2022/06/15 11:15:06;;;;;;;;;8.00;8.00;;;;;42.00;16.49;101083.47;5092397;27;46372;-72
2022/06/15 11:20:34;;;;;;;;;8.67;7.33;;;;;42.02;16.16;101086.97;5096645;27;45335;-72
2022/06/15 11:23:09;;;;;;;;;8.00;8.00;;;;;42.06;16.18;101093.94;5095861;27;45553;-72
2022/06/15 11:25:53;;;;;;;;;7.00;7.00;;;;;42.11;16.46;101090.63;5095004;27;46118;-72
2022/06/15 11:28:35;;;;;;;;;9.67;9.00;;;;;42.22;15.85;101090.34;5096196;27;46475;-72
2022/06/15 11:31:10;;;;;;;;;8.00;7.00;;;;;42.25;15.93;101083.56;5100738;27;45481;-72
2022/06/15 11:33:43;;;;;;;;;7.00;7.00;;;;;42.23;15.86;101080.94;5096818;27;45514;-72
2022/06/15 11:36:43;;;;;;;;;8.67;7.00;;;;;42.30;15.89;101086.72;5097069;27;46239;-72
2022/06/15 11:39:22;;;;;;;;;13.00;10.67;;;;;42.31;15.97;101089.31;5095929;27;45405;-72
2022/06/15 11:41:57;;;;;;;;;12.33;10.00;;;;;42.29;14.90;101069.09;5096838;27;45466;-72
2022/06/15 11:44:30;;;;;;;;;7.67;7.67;;;;;42.44;15.38;101076.78;5102242;27;45546;-72
2022/06/15 11:47:16;;;;;;;;;9.33;8.00;;;;;42.56;15.22;101081.00;5102455;27;45503;-72
2022/06/15 11:50:08;;;;;;;;;8.00;7.33;;;;;42.42;14.73;101074.19;5106654;27;45479;-72
2022/06/15 11:52:45;;;;;;;;;7.33;7.33;;;;;42.61;15.35;101081.31;5108180;27;45513;-72
2022/06/15 11:55:10;;;;;;;;;8.00;8.00;;;;;42.68;15.14;101081.53;5096614;27;45429;-72